Latest Weather Observations for Tindal

IDD60801

Issued at 9:01 pm CST Thursday 8 December 2016 (issued every 30 minutes, with the page automatically refreshed every 10 minutes)

About weather observations | Map of weather stations | Latest weather observations for NT | Other Formats
Station Details ID: 014932 Name: TINDAL RAAF Lat: -14.52 Lon: 132.38 Height: 133.6 m
Data from the previous 72 hours. | See also: Recent months at Tindal
Date/Time
CST
Temp
°C
App
Temp
°C
Dew
Point
°C
Rel
Hum
%
Delta-T
°C
Wind Press
QNH
hPa
Press
MSL
hPa
Rain since
9am
mm
Dir  Spd
km/h
Gust
km/h
Spd
kts
Gust
kts
08/09:00pm 33.9 33.6 14.4 31 12.1 NE 9 11 5 6 1005.5 1004.5 0.0
08/08:30pm 34.6 33.4 14.0 29 12.7 NE 13 15 7 8 1005.0 1004.0 0.0
08/08:00pm 34.8 34.2 13.6 28 13.0 ENE 9 11 5 6 1004.6 1003.6 0.0
08/07:30pm 36.2 34.9 12.4 24 14.5 ENE 11 13 6 7 1004.3 1003.3 0.0
08/07:00pm 37.5 36.1 12.2 22 15.3 E 11 15 6 8 1004.0 1003.0 0.0
08/06:30pm 38.9 36.4 11.1 19 16.7 E 15 19 8 10 1003.8 1002.8 0.0
08/06:00pm 39.7 36.8 10.9 18 17.3 ESE 17 30 9 16 1003.6 1002.6 0.0
08/05:30pm 39.9 36.4 10.2 17 17.7 ENE 19 24 10 13 1003.3 1002.2 0.0
08/05:00pm 40.1 39.5 13.6 21 16.5 N 9 15 5 8 1003.0 1001.9 0.0
08/04:30pm 39.9 39.4 14.8 22 16.0 E 11 24 6 13 1003.1 1002.0 0.0
08/04:00pm 39.1 39.2 15.5 25 15.1 NNE 9 19 5 10 1003.4 1002.4 0.0
08/03:30pm 38.3 39.0 16.0 27 14.3 N 7 15 4 8 1003.7 1002.7 0.0
08/03:00pm 38.7 38.1 15.7 25 14.8 NNE 13 26 7 14 1003.9 1002.9 0.0
08/02:30pm 38.9 39.2 17.1 28 14.2 ESE 11 32 6 17 1004.4 1003.4 0.0
08/02:00pm 38.0 38.4 16.3 27 14.0 NNE 9 19 5 10 1005.0 1004.0 0.0
08/01:30pm 37.6 37.6 17.1 30 13.3 NNE 13 30 7 16 1005.5 1004.5 0.0
08/01:00pm 37.5 38.2 18.0 31 12.8 NNE 11 30 6 16 1006.1 1005.1 0.0
08/12:30pm 36.8 36.7 17.9 33 12.4 N 15 26 8 14 1006.5 1005.5 0.0
08/12:00pm 35.7 35.0 17.4 33 11.9 NE 17 24 9 13 1007.1 1006.1 0.0
08/11:30am 35.3 36.0 18.0 36 11.3 NNW 11 22 6 12 1007.6 1006.6 0.0
08/11:00am 35.0 34.5 17.7 36 11.2 NNW 17 24 9 13 1008.1 1007.0 0.0
08/10:30am 34.5 35.0 20.1 43 9.7 NW 17 26 9 14 1008.3 1007.2 0.0
08/10:00am 33.5 33.8 19.6 44 9.2 NNW 17 28 9 15 1008.6 1007.5 0.0
08/09:30am 32.6 34.0 21.8 53 7.4 NW 17 35 9 19 1008.7 1007.6 0.0
08/09:00am 31.9 33.7 22.6 58 6.4 NNW 17 24 9 13 1008.8 1007.7 0.0
08/08:30am 30.7 33.7 23.4 65 5.1 NW 13 19 7 10 1008.9 1007.8 0.0
08/08:00am 29.6 32.2 23.3 69 4.3 NNW 15 19 8 10 1008.8 1007.7 0.0
08/07:30am 28.5 31.8 23.2 73 3.6 N 11 15 6 8 1008.5 1007.4 0.0
08/07:00am 27.9 31.1 23.1 75 3.3 N 11 17 6 9 1008.2 1007.1 0.0
08/06:30am 27.3 30.0 22.9 77 3.0 N 13 17 7 9 1007.6 1006.6 0.0
08/06:00am 27.2 30.3 22.8 77 3.0 N 11 19 6 10 1007.3 1006.3 0.0
08/05:30am 27.3 29.9 22.7 76 3.1 N 13 17 7 9 1007.0 1006.0 0.0
08/05:00am 27.1 30.0 22.5 76 3.1 N 11 15 6 8 1006.9 1005.9 0.0
08/04:30am 27.1 30.4 21.8 73 3.6 NNE 7 11 4 6 1006.7 1005.7 0.0
08/04:00am 27.5 30.4 21.8 71 3.8 NNE 9 11 5 6 1006.7 1005.7 0.0
08/03:30am 28.0 31.0 21.3 67 4.5 NNE 7 11 4 6 1006.7 1005.7 0.0
08/03:00am 28.5 31.1 20.5 62 5.3 N 7 11 4 6 1006.7 1005.7 0.0
08/02:30am 29.3 29.4 17.5 49 7.5 N 13 17 7 9 1006.8 1005.8 0.0
08/02:00am 29.8 27.8 12.7 35 10.1 NE 15 19 8 10 1006.8 1005.8 0.0
08/01:30am 28.4 28.1 14.3 42 8.5 NE 9 13 5 7 1007.2 1006.2 0.0
08/01:00am 30.4 29.7 13.2 35 10.3 NE 9 11 5 6 1007.3 1006.3 0.0
08/12:30am 31.7 29.6 12.5 31 11.5 ENE 15 24 8 13 1007.6 1006.6 0.0
08/12:00am 29.5 29.4 16.0 44 8.4 E 11 11 6 6 1008.2 1007.1 0.0
 
Date/Time
CST
Temp
°C
App
Temp
°C
Dew
Point
°C
Rel
Hum
%
Delta-T
°C
Wind Press
QNH
hPa
Press
MSL
hPa
Rain since
9am
mm
Dir  Spd
km/h
Gust
km/h
Spd
kts
Gust
kts
07/11:30pm 30.3 29.8 16.0 42 8.9 E 13 17 7 9 1008.3 1007.2 0.0
07/11:00pm 28.3 29.2 17.5 52 6.9 ESE 9 11 5 6 1008.1 1007.0 0.0
07/10:30pm 28.5 29.8 17.1 50 7.2 SE 6 13 3 7 1007.8 1006.8 0.0
07/10:00pm 29.1 29.6 16.6 46 7.8 SE 9 11 5 6 1007.3 1006.3 0.0
07/09:30pm 30.2 32.7 17.3 46 8.2 CALM 0 0 0 0 1006.9 1005.9 0.0
07/09:00pm 31.3 33.3 16.1 40 9.6 CALM 0 0 0 0 1006.8 1005.8 0.0
07/08:30pm 33.6 33.8 14.1 30 12.0 NNE 6 9 3 5 1006.5 1005.5 0.0
07/08:00pm 35.2 35.1 13.9 27 13.1 N 7 11 4 6 1006.0 1005.0 0.0
07/07:30pm 36.2 35.4 13.0 24 14.2 NNE 9 11 5 6 1005.8 1004.8 0.0
07/07:00pm 37.2 35.9 12.6 23 15.0 NE 11 15 6 8 1005.5 1004.5 0.0
07/06:30pm 37.9 36.2 12.5 22 15.5 NE 13 17 7 9 1005.3 1004.3 0.0
07/06:00pm 38.6 36.1 12.4 21 16.0 NE 17 24 9 13 1005.0 1004.0 0.0
07/05:30pm 38.7 37.0 12.5 21 16.1 NNE 13 22 7 12 1004.9 1003.9 0.0
07/05:00pm 39.0 37.4 12.7 21 16.2 ENE 13 20 7 11 1004.9 1003.9 0.0
07/04:30pm 39.0 36.4 12.0 20 16.5 ENE 17 24 9 13 1005.0 1004.0 0.0
07/04:00pm 38.8 35.5 13.9 22 15.5 ENE 24 35 13 19 1005.2 1004.2 0.0
07/03:30pm 38.9 36.9 14.0 23 15.6 ENE 17 24 9 13 1005.3 1004.3 0.0
07/03:00pm 38.3 37.6 14.2 24 15.1 NNE 11 20 6 11 1005.6 1004.6 0.0
07/02:30pm 38.2 36.3 15.3 25 14.6 NE 19 28 10 15 1005.8 1004.8 0.0
07/02:00pm 38.4 37.9 14.9 25 14.9 NNE 11 24 6 13 1006.2 1005.2 0.0
07/01:30pm 38.1 37.9 15.8 26 14.3 ESE 11 20 6 11 1006.7 1005.7 0.0
07/01:00pm 37.4 36.6 15.2 26 14.0 NE 13 20 7 11 1007.3 1006.3 0.0
07/12:30pm 36.5 36.6 15.6 29 13.3 ENE 9 22 5 12 1007.9 1006.9 0.0
07/12:00pm 36.3 36.9 15.9 29 13.0 E 7 17 4 9 1008.6 1007.5 0.0
07/11:30am 35.7 37.5 18.7 36 11.2 ENE 7 13 4 7 1008.9 1007.8 0.0
07/11:00am 34.5 36.7 20.5 44 9.4 NW 9 19 5 10 1009.3 1008.2 0.0
07/10:30am 34.0 36.0 20.0 43 9.4 NNW 9 17 5 9 1009.7 1008.6 0.0
07/10:00am 33.0 35.8 23.0 55 6.9 NW 13 19 7 10 1010.0 1008.9 0.0
07/09:30am 31.9 35.3 23.4 60 5.9 W 11 17 6 9 1010.2 1009.2 0.0
07/09:00am 31.9 34.7 23.7 62 5.7 WNW 15 19 8 10 1010.6 1009.6 0.0
07/08:30am 31.1 32.9 23.5 64 5.3 WNW 20 30 11 16 1010.6 1009.6 0.0
07/08:00am 30.0 32.6 23.9 70 4.2 NW 17 22 9 12 1010.7 1009.7 0.0
07/07:30am 29.1 32.5 24.0 74 3.5 NNW 13 22 7 12 1010.4 1009.4 0.0
07/07:00am 28.2 31.7 23.6 76 3.2 NNW 11 13 6 7 1010.5 1009.5 0.0
07/06:30am 27.7 32.5 24.1 81 2.5 NNW 6 9 3 5 1010.4 1009.4 0.0
07/06:00am 27.3 30.7 24.0 82 2.3 NW 13 15 7 8 1009.9 1008.8 0.0
07/05:30am 27.4 32.0 24.1 82 2.3 NNW 7 9 4 5 1009.6 1008.5 0.0
07/05:00am 27.5 32.0 23.9 81 2.5 NW 7 9 4 5 1009.3 1008.2 0.0
07/04:30am 27.8 31.8 23.8 79 2.8 W 9 11 5 6 1009.1 1008.0 0.0
07/04:00am 28.2 33.9 23.8 77 3.0 CALM 0 2 0 1 1009.1 1008.0 0.0
07/03:30am 28.4 32.6 23.5 75 3.4 NW 7 11 4 6 1008.7 1007.6 0.0
07/03:00am 28.6 32.3 23.3 73 3.7 NNW 9 11 5 6 1008.7 1007.6 0.0
07/02:30am 28.8 32.9 23.2 71 3.9 WNW 7 9 4 5 1008.6 1007.5 0.0
07/02:00am 29.5 32.4 22.5 66 4.8 NW 11 15 6 8 1008.7 1007.6 0.0
07/01:30am 30.0 31.4 21.9 62 5.5 WNW 17 22 9 12 1008.9 1007.8 0.0
07/01:00am 30.7 31.3 20.3 53 6.9 WNW 17 24 9 13 1009.1 1008.0 0.0
07/12:30am 30.8 31.7 19.2 50 7.6 E 13 20 7 11 1009.1 1008.0 0.0
07/12:00am 29.7 33.6 20.3 57 6.2 CALM 0 0 0 0 1009.0 1007.9 0.0
 
Date/Time
CST
Temp
°C
App
Temp
°C
Dew
Point
°C
Rel
Hum
%
Delta-T
°C
Wind Press
QNH
hPa
Press
MSL
hPa
Rain since
9am
mm
Dir  Spd
km/h
Gust
km/h
Spd
kts
Gust
kts
06/11:30pm 29.4 32.8 21.6 63 5.3 SE 6 7 3 4 1009.1 1008.0 0.0
06/11:00pm 29.9 34.1 21.0 59 6.0 CALM 0 0 0 0 1009.2 1008.1 0.0
06/10:30pm 30.1 34.0 20.4 56 6.5 CALM 0 0 0 0 1008.9 1007.8 0.0
06/10:00pm 30.4 34.1 20.0 53 6.9 CALM 0 0 0 0 1008.6 1007.5 0.0
06/09:30pm 30.7 34.1 19.4 51 7.4 CALM 0 0 0 0 1008.3 1007.2 0.0
06/09:00pm 31.2 34.5 19.2 48 7.9 CALM 0 0 0 0 1007.9 1006.9 0.0
06/08:30pm 32.5 35.4 18.3 43 9.3 CALM 0 0 0 0 1007.6 1006.6 0.0
06/08:00pm 33.7 36.6 18.2 39 10.1 CALM 0 0 0 0 1007.2 1006.2 0.0
06/07:30pm 34.6 35.8 16.9 35 11.4 NNE 6 7 3 4 1007.0 1006.0 0.0
06/07:00pm 35.2 35.7 16.5 33 12.0 NE 9 13 5 7 1006.7 1005.7 0.0
06/06:30pm 36.2 35.7 15.9 30 12.9 NE 13 20 7 11 1006.3 1005.3 0.0
06/06:00pm 36.5 36.3 16.6 30 12.8 NE 13 17 7 9 1006.0 1005.0 0.0
06/05:30pm 37.0 37.3 17.1 31 12.9 NE 11 22 6 12 1005.8 1004.8 0.0
06/05:00pm 37.1 36.5 16.6 29 13.2 NNE 15 22 8 12 1005.8 1004.8 0.0
06/04:30pm 37.4 36.7 16.4 29 13.5 E 15 26 8 14 1005.8 1004.8 0.0
06/04:00pm 37.0 37.0 17.1 31 12.9 ENE 13 24 7 13 1006.0 1005.0 0.0
06/03:30pm 36.5 36.1 17.1 31 12.6 ENE 15 22 8 12 1006.3 1005.3 0.0
06/03:00pm 36.3 34.7 16.5 31 12.7 NE 20 28 11 15 1006.8 1005.8 0.0
06/02:30pm 36.4 35.4 16.5 30 12.8 NNE 17 26 9 14 1007.1 1006.1 0.0
06/02:00pm 36.9 35.9 17.5 32 12.6 ENE 19 32 10 17 1007.6 1006.6 0.0
06/01:30pm 36.4 35.9 16.0 29 13.0 NE 13 20 7 11 1007.9 1006.9 0.0
06/01:00pm 35.7 35.2 16.9 32 12.1 NE 15 24 8 13 1008.5 1007.4 0.0
06/12:30pm 35.1 35.3 18.6 37 10.9 NE 15 26 8 14 1009.0 1007.9 0.0
06/12:00pm 35.3 36.4 18.8 37 10.9 NNE 11 17 6 9 1009.5 1008.4 0.0
06/11:30am 33.7 35.9 20.5 46 8.9 N 9 17 5 9 1010.1 1009.1 0.0
06/11:00am 33.0 35.4 20.9 49 8.2 N 9 15 5 8 1010.7 1009.7 0.0
06/10:30am 33.5 35.2 21.0 48 8.5 NE 13 30 7 16 1011.0 1010.0 0.0
06/10:00am 32.6 35.9 21.8 53 7.4 ESE 7 17 4 9 1011.3 1010.3 0.0
06/09:30am 32.0 35.1 22.1 55 6.8 ENE 9 19 5 10 1011.2 1010.2 0.0
06/09:00am 30.7 34.0 21.8 59 6.0 NNW 7 15 4 8 1011.5 1010.5 0.0
06/08:30am 29.9 33.0 22.1 63 5.3 NNW 9 13 5 7 1011.5 1010.5 0.0
06/08:00am 29.3 32.2 21.8 64 5.1 N 9 13 5 7 1011.5 1010.5 0.0
06/07:30am 28.6 31.8 21.6 66 4.7 NNW 7 11 4 6 1011.4 1010.4 0.0
06/07:00am 28.1 30.8 21.4 67 4.5 N 9 13 5 7 1011.1 1010.1 0.0
06/06:30am 27.2 30.6 21.7 72 3.7 NE 6 7 3 4 1010.9 1009.9 0.0
06/06:00am 27.3 31.9 21.8 72 3.7 CALM 0 0 0 0 1010.6 1009.6 0.0
06/05:30am 27.2 31.4 21.7 72 3.7 NNW 2 7 1 4 1010.3 1009.3 0.0
06/05:00am 27.0 30.9 21.1 70 3.9 NW 2 6 1 3 1009.9 1008.8 0.0
06/04:30am 27.1 30.0 20.7 68 4.2 S 6 7 3 4 1009.5 1008.4 0.0
06/04:00am 27.8 30.6 20.9 66 4.6 SSW 7 9 4 5 1009.2 1008.1 0.0
06/03:30am 28.3 30.5 20.3 62 5.3 W 9 11 5 6 1009.0 1007.9 0.0
06/03:00am 29.2 30.7 19.8 57 6.2 NW 11 15 6 8 1008.8 1007.7 0.0
06/02:30am 29.8 31.7 20.6 57 6.1 NNW 11 13 6 7 1008.9 1007.8 0.0
06/02:00am 29.7 31.9 20.5 57 6.1 NW 9 13 5 7 1008.9 1007.8 0.0
06/01:30am 30.5 32.2 21.0 57 6.4 ENE 13 19 7 10 1008.9 1007.8 0.0
06/01:00am 30.8 31.2 20.7 55 6.8 ENE 19 24 10 13 1009.0 1007.9 0.0
06/12:30am 31.0 31.0 19.7 51 7.5 E 19 26 10 14 1009.2 1008.1 0.0
06/12:00am 29.9 32.3 18.0 48 7.7 E 2 9 1 5 1009.2 1008.1 0.0
 
Date/Time
CST
Temp
°C
App
Temp
°C
Dew
Point
°C
Rel
Hum
%
Delta-T
°C
Wind Press
QNH
hPa
Press
MSL
hPa
Rain since
9am
mm
Dir  Spd
km/h
Gust
km/h
Spd
kts
Gust
kts
05/11:30pm 30.9 32.0 17.2 43 8.7 NE 7 9 4 5 1009.4 1008.3 0.0
05/11:00pm 30.5 32.4 17.6 46 8.3 ENE 4 7 2 4 1009.3 1008.2 0.0
05/10:30pm 30.5 32.5 17.9 47 8.1 ENE 4 6 2 3 1009.3 1008.2 0.0
05/10:00pm 30.4 33.0 17.5 46 8.2 CALM 0 0 0 0 1009.1 1008.0 0.0
05/09:30pm 30.8 33.5 17.8 45 8.4 CALM 0 0 0 0 1008.8 1007.7 0.0

Other Formats:

Comma delimited format used in spreadsheet applications
http://www.bom.gov.au/fwo/IDD60801/IDD60801.94131.axf

JavaScript Object Notation format (JSON) in row-major order
http://www.bom.gov.au/fwo/IDD60801/IDD60801.94131.json